Thursday, October 19, 2017, 2:15 PM EDT
Back to Local

KLBE, Latrobe / Westmorland

Location: Latrobe, PA, United States Lat: 40.283
Local Time: 2:15 PM EDT (18:15 GMT) Lon: -79.4
Time Zone: US/Eastern Elev: 1184 ft

Show me the last for .
Show Coded

Time T Td Feel RH Dir Speed Gust Alt SLP Vis Weather Sky Remarks
2017-10-19 13:50 66 45 - 45 250° 12 23 30.21 - 10 CLR None
2017-10-19 12:50 66 45 - 45 260° 14 25 30.24 - 10 CLR None
2017-10-19 11:50 64 45 - 48 240° 16 - 30.25 - 10 CLR None
2017-10-19 10:45 61 45 - 55 230° 14 - 30.26 - 15 CLR None
2017-10-19 09:45 55 45 - 66 240° 14 - 30.26 - 15 CLR None
2017-10-19 08:45 48 43 45 81 220° 7 - 30.24 - 15 CLR None
2017-10-19 07:45 39 39 - 100 - Calm - 30.25 - 15 CLR None
2017-10-19 06:47 39 39 - 100 - Calm - 30.24 - 10 CLR None
2017-10-19 05:55 41 41 - 100 - Calm - 30.24 - 10 CLR None
2017-10-19 05:35 41 39 - 93 - Calm - 30.23 - 10 CLR None
2017-10-19 05:15 41 39 - 93 - Calm - 30.23 - 10 CLR None
2017-10-19 04:55 41 39 - 93 - Calm - 30.23 - 10 CLR None
2017-10-19 04:35 41 41 - 100 - Calm - 30.23 - 10 CLR None
2017-10-19 04:15 45 41 - 87 - Calm - 30.23 - 10 CLR None
2017-10-19 03:55 41 39 39 93 150° 3 - 30.23 - 10 CLR None
2017-10-19 03:35 41 39 - 93 - Calm - 30.23 - 10 CLR None
2017-10-19 03:15 41 41 - 100 - Calm - 30.23 - 10 CLR None
2017-10-19 02:55 43 41 - 93 - Calm - 30.23 - 10 CLR None
2017-10-19 02:35 43 41 - 93 - Calm - 30.23 - 10 CLR None
2017-10-19 02:15 45 41 - 87 - Calm - 30.23 - 7 CLR None
2017-10-19 01:55 45 41 - 87 - Calm - 30.23 - 10 CLR None
2017-10-19 01:35 45 43 - 93 - Calm - 30.23 - 10 CLR None
2017-10-19 01:15 45 41 - 87 - Calm - 30.22 - 10 CLR None
2017-10-19 00:55 46 43 - 87 - Calm - 30.22 - 6 BR CLR None
2017-10-19 00:35 46 43 - 87 - Calm - 30.23 - 5 BR CLR None
2017-10-19 00:15 46 43 - 87 - Calm - 30.23 - 5 BR CLR None
2017-10-18 23:55 46 43 - 87 - Calm - 30.23 - 3 BR CLR None
2017-10-18 23:35 46 41 - 81 - Calm - 30.24 - 4 HZ CLR None
2017-10-18 23:15 48 45 - 87 - Calm - 30.24 - 3 BR CLR None
2017-10-18 22:55 48 45 - 87 - Calm - 30.25 - 3 BR CLR None
2017-10-18 22:35 48 45 - 87 - Calm - 30.25 - 2 HZ CLR Variable visibility
2017-10-18 22:15 48 43 - 81 - Calm - 30.25 - 2 HZ CLR Variable visibility
2017-10-18 20:48 55 45 - 66 - Calm - 30.24 - 10 CLR None
2017-10-18 19:48 55 45 - 66 - Calm - 30.24 - 10 CLR None
2017-10-18 18:48 63 43 - 48 - Calm - 30.24 - 10 CLR None
2017-10-18 17:48 70 39 - 32 250° 9 - 30.23 - 10 CLR None
2017-10-18 16:48 72 41 - 33 250° 9 - 30.26 - 10 CLR None
2017-10-18 15:46 72 41 - 33 230° 9 - 30.26 - 10 CLR None
2017-10-18 14:45 70 41 - 35 - Calm - 30.28 - 15 CLR None

Support USWX by starting your Amazon purchase here.